createdAt,value
2018-07-13T00:05:26.755Z,21.30
2018-07-13T00:10:29.868Z,21.30
2018-07-13T00:15:32.972Z,21.30
2018-07-13T00:20:36.083Z,21.20
2018-07-13T00:25:45.993Z,21.10
2018-07-13T00:30:49.104Z,21.10
2018-07-13T00:35:52.207Z,21.10
2018-07-13T00:40:55.311Z,21.10
2018-07-13T00:45:58.428Z,21.00
2018-07-13T00:56:04.388Z,21.00
2018-07-13T01:01:07.500Z,20.90
2018-07-13T01:06:10.608Z,20.90
2018-07-13T01:11:13.731Z,20.90
2018-07-13T01:16:16.835Z,20.90
2018-07-13T01:21:19.978Z,20.80
2018-07-13T01:26:23.064Z,20.80
2018-07-13T01:36:29.094Z,20.70
2018-07-13T01:41:32.200Z,20.60
2018-07-13T01:46:35.309Z,20.60
2018-07-13T01:51:38.417Z,20.60
2018-07-13T01:56:41.502Z,20.60
2018-07-13T02:06:47.523Z,20.50
2018-07-13T02:11:50.665Z,20.50
2018-07-13T02:16:53.756Z,20.40
2018-07-13T02:21:56.820Z,20.50
2018-07-13T02:26:59.911Z,20.50
2018-07-13T02:32:03.003Z,20.40
2018-07-13T02:37:06.342Z,20.40
2018-07-13T02:42:09.482Z,20.40
2018-07-13T02:47:12.596Z,20.30
2018-07-13T02:52:15.741Z,20.30
2018-07-13T03:02:21.792Z,20.30
2018-07-13T03:07:24.921Z,20.30
2018-07-13T03:17:31.039Z,20.20
2018-07-13T03:22:34.177Z,20.20
2018-07-13T03:27:37.299Z,20.20
2018-07-13T03:32:40.401Z,20.20
2018-07-13T03:37:43.532Z,20.20
2018-07-13T03:42:46.664Z,20.10
2018-07-13T03:47:49.759Z,20.10
2018-07-13T03:52:52.903Z,20.20
2018-07-13T03:57:56.037Z,20.20
2018-07-13T04:02:59.161Z,20.20
2018-07-13T04:08:02.288Z,20.10
2018-07-13T04:13:05.864Z,20.20
2018-07-13T04:18:26.801Z,20.20
2018-07-13T04:23:30.018Z,20.20
2018-07-13T04:28:33.500Z,20.10
2018-07-13T04:33:36.616Z,20.10
2018-07-13T04:38:39.740Z,20.20
2018-07-13T04:43:42.857Z,20.20
2018-07-13T04:48:45.976Z,20.20
2018-07-13T04:53:49.121Z,20.10
2018-07-13T04:58:52.252Z,20.20
2018-07-13T05:03:55.503Z,20.20
2018-07-13T05:14:01.557Z,20.20
2018-07-13T05:19:04.754Z,20.30
2018-07-13T05:24:07.839Z,20.20
2018-07-13T05:29:10.969Z,20.20
2018-07-13T05:34:14.086Z,20.20
2018-07-13T05:39:17.208Z,20.20
2018-07-13T05:44:20.324Z,20.20
2018-07-13T05:49:23.480Z,20.20
2018-07-13T05:54:26.632Z,20.20
2018-07-13T05:59:29.747Z,20.30
2018-07-13T06:04:32.968Z,20.30
2018-07-13T06:21:40.083Z,20.40
2018-07-13T06:26:43.171Z,20.70
2018-07-13T06:44:07.068Z,20.70
2018-07-13T06:49:10.192Z,21.10
2018-07-13T06:54:13.609Z,20.90
2018-07-13T06:59:19.047Z,20.90
2018-07-13T07:04:26.123Z,20.90
2018-07-13T07:09:29.268Z,20.90
2018-07-13T07:14:32.379Z,20.90
2018-07-13T07:19:35.520Z,20.90
2018-07-13T07:24:38.640Z,21.00
2018-07-13T07:29:41.744Z,21.00
2018-07-13T07:34:44.844Z,21.00
2018-07-13T07:39:47.981Z,21.00
2018-07-13T07:44:51.108Z,21.10
2018-07-13T07:49:54.256Z,21.20
2018-07-13T07:54:57.403Z,21.30
2018-07-13T08:00:00.508Z,21.30
2018-07-13T08:05:03.656Z,21.30
2018-07-13T08:10:06.864Z,21.50
2018-07-13T08:15:10.056Z,21.50
2018-07-13T08:20:17.422Z,21.60
2018-07-13T08:25:20.772Z,21.70
2018-07-13T08:30:39.566Z,21.70
2018-07-13T08:35:42.964Z,21.80
2018-07-13T08:40:46.136Z,21.90
2018-07-13T08:45:49.338Z,21.90
2018-07-13T08:50:52.452Z,22.00
2018-07-13T08:55:55.644Z,22.00
2018-07-13T09:00:58.729Z,22.10
2018-07-13T09:06:01.829Z,22.20
2018-07-13T09:11:04.935Z,22.30
2018-07-13T09:16:08.031Z,22.40
2018-07-13T09:21:11.151Z,22.50
2018-07-13T09:26:14.290Z,22.60
2018-07-13T09:31:17.527Z,22.70
2018-07-13T09:36:20.631Z,22.90
2018-07-13T09:41:23.728Z,23.00
2018-07-13T09:46:26.852Z,23.10
2018-07-13T09:51:30.046Z,23.20
2018-07-13T09:56:33.150Z,23.30
2018-07-13T10:01:36.276Z,23.40
2018-07-13T10:06:39.363Z,23.50
2018-07-13T10:11:42.483Z,23.60
2018-07-13T10:16:45.708Z,23.70
2018-07-13T10:21:49.164Z,23.80
2018-07-13T10:26:52.700Z,24.00
2018-07-13T10:31:55.928Z,24.10
2018-07-13T10:37:03.196Z,24.20
2018-07-13T10:42:06.412Z,24.20
2018-07-13T10:47:09.629Z,24.30
2018-07-13T10:52:12.731Z,24.40
2018-07-13T10:57:15.837Z,24.50
2018-07-13T11:07:21.897Z,24.80
2018-07-13T11:12:24.985Z,25.00
2018-07-13T11:17:28.152Z,25.10
2018-07-13T11:22:31.280Z,25.30
2018-07-13T11:27:34.371Z,25.40
2018-07-13T11:32:37.467Z,25.50
2018-07-13T11:37:40.564Z,25.50
2018-07-13T11:47:46.613Z,25.60
2018-07-13T11:52:49.712Z,25.80
2018-07-13T11:57:59.243Z,26.10
2018-07-13T12:03:02.360Z,26.30
2018-07-13T12:08:05.734Z,26.60
2018-07-13T12:13:08.844Z,26.90
2018-07-13T12:18:11.947Z,27.10
2018-07-13T12:23:15.097Z,27.40
2018-07-13T12:28:18.173Z,27.60
2018-07-13T12:33:21.279Z,27.90
2018-07-13T12:38:24.396Z,28.10
2018-07-13T12:43:27.478Z,28.30
2018-07-13T12:48:30.583Z,28.50
2018-07-13T12:53:33.676Z,28.60
2018-07-13T12:58:36.868Z,28.80
2018-07-13T13:03:40.083Z,29.00
2018-07-13T13:08:43.179Z,29.20
2018-07-13T13:13:46.278Z,29.40
2018-07-13T13:18:49.380Z,29.50
2018-07-13T13:23:52.469Z,29.60
2018-07-13T13:28:55.596Z,29.80
2018-07-13T13:33:58.707Z,29.90
2018-07-13T13:39:01.804Z,30.10
2018-07-13T13:44:04.888Z,30.20
2018-07-13T13:49:08.008Z,30.30
2018-07-13T13:54:11.376Z,30.40
2018-07-13T13:59:14.495Z,30.50
2018-07-13T14:04:17.584Z,30.60
2018-07-13T14:09:20.788Z,30.60
2018-07-13T14:14:24.035Z,30.70
2018-07-13T14:19:27.103Z,30.80
2018-07-13T14:24:30.272Z,30.90
2018-07-13T14:29:33.352Z,30.70
2018-07-13T14:34:36.544Z,30.50
2018-07-13T14:39:39.599Z,30.50
2018-07-13T14:44:42.811Z,30.50
2018-07-13T14:49:46.009Z,30.60
2018-07-13T14:54:49.136Z,30.70
2018-07-13T14:59:52.216Z,30.70
2018-07-13T15:09:58.247Z,30.40
2018-07-13T15:15:01.412Z,30.30
2018-07-13T15:20:04.611Z,30.10
2018-07-13T15:25:07.742Z,29.90
2018-07-13T15:30:10.883Z,29.60
2018-07-13T15:35:13.970Z,29.10
2018-07-13T15:40:17.088Z,28.80
2018-07-13T15:45:20.183Z,28.40
2018-07-13T15:50:23.321Z,28.30
2018-07-13T15:55:34.639Z,28.20
2018-07-13T16:00:37.820Z,28.00
2018-07-13T16:05:41.013Z,27.70
2018-07-13T16:10:44.236Z,27.60
2018-07-13T16:15:47.256Z,27.70
2018-07-13T16:20:50.324Z,27.50
2018-07-13T16:25:53.449Z,27.60
2018-07-13T16:30:56.577Z,27.60
2018-07-13T16:35:59.755Z,27.50
2018-07-13T16:41:02.841Z,27.60
2018-07-13T16:46:05.960Z,27.50
2018-07-13T16:51:09.093Z,27.40
2018-07-13T16:56:12.235Z,27.40
2018-07-13T17:01:15.431Z,27.30
2018-07-13T17:06:18.543Z,27.20
2018-07-13T17:11:21.642Z,27.20
2018-07-13T17:16:24.751Z,27.20
2018-07-13T17:21:27.821Z,27.20
2018-07-13T17:26:30.934Z,27.10
2018-07-13T17:31:34.139Z,26.90
2018-07-13T17:36:37.239Z,26.60
2018-07-13T17:41:40.331Z,26.30
2018-07-13T17:46:43.440Z,26.30
2018-07-13T17:51:46.562Z,26.30
2018-07-13T17:56:49.659Z,26.30
2018-07-13T18:01:52.788Z,26.20
2018-07-13T18:06:55.917Z,26.20
2018-07-13T18:11:59.012Z,26.10
2018-07-13T18:17:02.120Z,26.00
2018-07-13T18:22:05.232Z,26.00
2018-07-13T18:27:08.341Z,25.80
2018-07-13T18:32:11.455Z,25.60
2018-07-13T18:37:14.548Z,25.40
2018-07-13T18:42:17.736Z,25.40
2018-07-13T18:47:20.856Z,25.10
2018-07-13T18:52:23.975Z,24.70
2018-07-13T18:57:27.060Z,24.50
2018-07-13T19:02:30.186Z,24.50
2018-07-13T19:07:33.316Z,24.40
2018-07-13T19:12:36.427Z,24.30
2018-07-13T19:17:39.532Z,24.30
2018-07-13T19:22:42.738Z,24.20
2018-07-13T19:27:45.784Z,24.10
2018-07-13T19:32:48.964Z,24.00
2018-07-13T19:37:52.067Z,23.90
2018-07-13T19:42:56.175Z,23.80
2018-07-13T19:47:59.295Z,23.70
2018-07-13T19:53:02.479Z,23.60
2018-07-13T19:58:05.596Z,23.50
2018-07-13T20:03:08.736Z,23.40
2018-07-13T20:08:11.816Z,23.30
2018-07-13T20:13:14.912Z,23.20
2018-07-13T20:18:17.999Z,23.10
2018-07-13T20:23:21.072Z,23.00
2018-07-13T20:28:24.211Z,22.90
2018-07-13T20:33:27.390Z,22.80
2018-07-13T20:38:30.437Z,22.60
2018-07-13T20:43:33.536Z,22.60
2018-07-13T20:48:36.867Z,22.40
2018-07-13T20:53:39.980Z,22.30
2018-07-13T20:58:43.155Z,22.20
2018-07-13T21:03:46.252Z,22.20
2018-07-13T21:08:49.464Z,22.10
2018-07-13T21:13:52.563Z,22.00
2018-07-13T21:18:55.685Z,22.00
2018-07-13T21:23:58.892Z,21.90
2018-07-13T21:29:01.981Z,21.80
2018-07-13T21:34:05.264Z,21.80
2018-07-13T21:39:08.773Z,21.70
2018-07-13T21:44:11.895Z,21.60
2018-07-13T21:49:15.046Z,21.50
2018-07-13T21:54:18.291Z,21.50
2018-07-13T21:59:21.436Z,21.40
2018-07-13T22:09:34.894Z,21.30
2018-07-13T22:14:38.014Z,21.20
2018-07-13T22:19:41.096Z,21.20
2018-07-13T22:24:44.186Z,21.20
2018-07-13T22:29:47.284Z,21.10
2018-07-13T22:34:50.404Z,21.00
2018-07-13T22:39:53.475Z,20.90
2018-07-13T22:44:56.564Z,20.80
2018-07-13T23:00:06.200Z,20.70
2018-07-13T23:05:09.448Z,20.60
2018-07-13T23:10:12.577Z,20.50
2018-07-13T23:15:15.740Z,20.50
2018-07-13T23:20:18.851Z,20.40
2018-07-13T23:25:21.953Z,20.40
2018-07-13T23:30:25.073Z,20.40
2018-07-13T23:35:28.175Z,20.30
2018-07-13T23:40:31.279Z,20.30
2018-07-13T23:45:34.383Z,20.30
2018-07-13T23:50:37.488Z,20.20
2018-07-13T23:55:40.596Z,20.20
